createdAt,value
2019-06-26T00:00:40.273Z,23.44
2019-06-26T00:01:40.253Z,23.34
2019-06-26T00:02:40.248Z,23.41
2019-06-26T00:03:40.231Z,23.42
2019-06-26T00:04:40.218Z,23.37
2019-06-26T00:05:40.209Z,23.42
2019-06-26T00:06:40.197Z,23.29
2019-06-26T00:07:40.208Z,23.34
2019-06-26T00:08:40.178Z,23.33
2019-06-26T00:09:40.176Z,23.41
2019-06-26T00:10:40.149Z,23.33
2019-06-26T00:11:40.139Z,23.26
2019-06-26T00:12:40.160Z,23.29
2019-06-26T00:13:40.119Z,23.31
2019-06-26T00:14:40.113Z,23.33
2019-06-26T00:15:40.100Z,23.26
2019-06-26T00:16:40.093Z,23.28
2019-06-26T00:17:40.094Z,23.28
2019-06-26T00:18:40.069Z,23.25
2019-06-26T00:19:40.054Z,23.29
2019-06-26T00:20:40.051Z,23.23
2019-06-26T00:21:40.057Z,23.28
2019-06-26T00:22:40.044Z,23.37
2019-06-26T00:23:40.011Z,23.34
2019-06-26T00:24:39.995Z,23.23
2019-06-26T00:25:39.989Z,23.25
2019-06-26T00:26:39.985Z,23.23
2019-06-26T00:27:39.975Z,23.29
2019-06-26T00:28:39.955Z,23.31
2019-06-26T00:29:39.960Z,23.28
2019-06-26T00:30:39.936Z,23.33
2019-06-26T00:31:39.923Z,23.21
2019-06-26T00:32:39.928Z,23.33
2019-06-26T00:33:39.900Z,23.18
2019-06-26T00:34:39.889Z,23.25
2019-06-26T00:35:39.877Z,23.21
2019-06-26T00:36:39.866Z,23.25
2019-06-26T00:37:39.868Z,23.25
2019-06-26T00:38:40.260Z,23.23
2019-06-26T00:39:39.835Z,23.23
2019-06-26T00:40:39.829Z,23.23
2019-06-26T00:41:39.814Z,23.21
2019-06-26T00:42:39.816Z,23.18
2019-06-26T00:43:42.679Z,23.21
2019-06-26T00:44:39.788Z,23.17
2019-06-26T00:45:39.772Z,23.15
2019-06-26T00:46:39.758Z,23.14
2019-06-26T00:47:39.764Z,23.15
2019-06-26T00:48:39.743Z,23.21
2019-06-26T00:49:39.727Z,23.17
2019-06-26T00:50:39.715Z,23.15
2019-06-26T00:51:39.701Z,23.21
2019-06-26T00:52:39.704Z,23.07
2019-06-26T00:53:39.685Z,23.13
2019-06-26T00:54:39.674Z,23.08
2019-06-26T00:55:39.664Z,23.11
2019-06-26T00:56:39.644Z,23.13
2019-06-26T00:57:39.654Z,23.07
2019-06-26T00:58:39.631Z,23.03
2019-06-26T00:59:39.628Z,23.06
2019-06-26T01:00:39.625Z,23.10
2019-06-26T01:01:39.718Z,23.03
2019-06-26T01:02:39.596Z,23.01
2019-06-26T01:03:39.576Z,22.99
2019-06-26T01:04:39.620Z,23.06
2019-06-26T01:05:39.552Z,23.06
2019-06-26T01:06:39.565Z,23.01
2019-06-26T01:07:39.536Z,22.99
2019-06-26T01:08:39.517Z,22.98
2019-06-26T01:09:39.504Z,23.01
2019-06-26T01:10:39.495Z,23.08
2019-06-26T01:11:39.485Z,23.03
2019-06-26T01:12:39.488Z,22.95
2019-06-26T01:13:39.467Z,22.96
2019-06-26T01:14:39.450Z,22.92
2019-06-26T01:15:39.442Z,22.96
2019-06-26T01:16:39.434Z,23.01
2019-06-26T01:17:39.548Z,22.86
2019-06-26T01:18:39.411Z,22.93
2019-06-26T01:19:39.408Z,22.85
2019-06-26T01:20:39.384Z,22.92
2019-06-26T01:21:39.384Z,22.86
2019-06-26T01:22:39.386Z,22.95
2019-06-26T01:23:39.349Z,22.85
2019-06-26T01:24:39.343Z,22.92
2019-06-26T01:25:39.332Z,22.86
2019-06-26T01:26:39.323Z,22.89
2019-06-26T01:27:39.319Z,22.98
2019-06-26T01:28:39.300Z,22.89
2019-06-26T01:29:39.289Z,22.89
2019-06-26T01:30:39.275Z,22.89
2019-06-26T01:31:39.268Z,22.85
2019-06-26T01:32:39.271Z,22.89
2019-06-26T01:33:39.245Z,22.88
2019-06-26T01:34:39.231Z,22.88
2019-06-26T01:35:39.220Z,22.83
2019-06-26T01:36:39.208Z,22.88
2019-06-26T01:37:39.217Z,22.88
2019-06-26T01:38:39.187Z,22.86
2019-06-26T01:39:39.177Z,22.83
2019-06-26T01:40:39.170Z,22.80
2019-06-26T01:41:39.157Z,22.78
2019-06-26T01:42:39.178Z,22.77
2019-06-26T01:43:39.148Z,22.70
2019-06-26T01:44:39.125Z,22.76
2019-06-26T01:45:39.133Z,22.74
2019-06-26T01:46:39.104Z,22.70
2019-06-26T01:47:39.108Z,22.70
2019-06-26T01:48:39.079Z,22.66
2019-06-26T01:49:39.069Z,22.61
2019-06-26T01:50:39.057Z,22.64
2019-06-26T01:51:39.071Z,22.71
2019-06-26T01:52:39.056Z,22.67
2019-06-26T01:53:39.024Z,22.61
2019-06-26T01:54:39.014Z,22.62
2019-06-26T01:55:39.007Z,22.66
2019-06-26T01:56:39.001Z,22.64
2019-06-26T01:57:38.995Z,22.66
2019-06-26T01:58:38.980Z,22.64
2019-06-26T01:59:38.967Z,22.56
2019-06-26T02:00:38.962Z,22.66
2019-06-26T02:01:38.934Z,22.55
2019-06-26T02:02:38.941Z,22.48
2019-06-26T02:03:38.915Z,22.59
2019-06-26T02:04:38.914Z,22.59
2019-06-26T02:05:38.895Z,22.56
2019-06-26T02:06:38.886Z,22.49
2019-06-26T02:07:38.891Z,22.53
2019-06-26T02:08:38.885Z,22.59
2019-06-26T02:09:38.857Z,22.58
2019-06-26T02:10:38.847Z,22.59
2019-06-26T02:11:38.831Z,22.58
2019-06-26T02:12:38.843Z,22.51
2019-06-26T02:13:38.807Z,22.53
2019-06-26T02:14:38.794Z,22.53
2019-06-26T02:15:38.791Z,22.53
2019-06-26T02:16:38.777Z,22.51
2019-06-26T02:17:38.780Z,22.59
2019-06-26T02:18:38.749Z,22.51
2019-06-26T02:19:38.742Z,22.53
2019-06-26T02:20:38.733Z,22.46
2019-06-26T02:21:38.720Z,22.48
2019-06-26T02:22:38.725Z,22.38
2019-06-26T02:23:38.702Z,22.43
2019-06-26T02:24:38.689Z,22.43
2019-06-26T02:25:38.675Z,22.34
2019-06-26T02:26:38.666Z,22.38
2019-06-26T02:27:38.673Z,22.34
2019-06-26T02:28:38.639Z,22.37
2019-06-26T02:29:38.629Z,22.37
2019-06-26T02:30:38.617Z,22.41
2019-06-26T02:31:38.619Z,22.36
2019-06-26T02:32:38.631Z,22.34
2019-06-26T02:33:38.591Z,22.28
2019-06-26T02:34:38.580Z,22.34
2019-06-26T02:35:38.567Z,22.36
2019-06-26T02:36:38.568Z,22.37
2019-06-26T02:37:38.563Z,22.38
2019-06-26T02:38:38.551Z,22.34
2019-06-26T02:39:38.526Z,22.38
2019-06-26T02:40:38.579Z,22.40
2019-06-26T02:41:38.498Z,22.40
2019-06-26T02:42:38.516Z,22.40
2019-06-26T02:43:38.514Z,22.37
2019-06-26T02:44:52.057Z,22.31
2019-06-26T02:45:39.456Z,22.34
2019-06-26T02:46:38.451Z,22.27
2019-06-26T02:47:38.437Z,22.28
2019-06-26T02:48:38.434Z,22.36
2019-06-26T02:49:38.428Z,22.37
2019-06-26T02:50:38.399Z,22.28
2019-06-26T02:51:38.457Z,22.25
2019-06-26T02:52:38.415Z,22.30
2019-06-26T02:53:38.373Z,22.33
2019-06-26T02:54:38.374Z,22.27
2019-06-26T02:55:38.345Z,22.30
2019-06-26T02:56:38.332Z,22.22
2019-06-26T02:57:38.328Z,22.27
2019-06-26T02:58:38.318Z,22.28
2019-06-26T02:59:38.327Z,22.22
2019-06-26T03:00:38.294Z,22.30
2019-06-26T03:01:38.283Z,22.30
2019-06-26T03:02:38.281Z,22.21
2019-06-26T03:03:38.282Z,22.28
2019-06-26T03:04:38.283Z,22.34
2019-06-26T03:05:38.238Z,22.23
2019-06-26T03:06:38.227Z,22.30
2019-06-26T03:07:38.226Z,22.33
2019-06-26T03:08:38.201Z,22.36
2019-06-26T03:09:38.197Z,22.31
2019-06-26T03:10:38.266Z,22.40
2019-06-26T03:11:38.174Z,22.30
2019-06-26T03:12:38.160Z,22.40
2019-06-26T03:13:38.152Z,22.33
2019-06-26T03:14:38.141Z,22.34
2019-06-26T03:15:38.165Z,22.37
2019-06-26T03:16:38.118Z,22.38
2019-06-26T03:17:51.010Z,22.38
2019-06-26T03:18:39.095Z,22.31
2019-06-26T03:19:38.082Z,22.38
2019-06-26T03:20:38.088Z,22.34
2019-06-26T03:21:38.062Z,22.43
2019-06-26T03:22:38.047Z,22.44
2019-06-26T03:23:38.042Z,22.43
2019-06-26T03:24:38.032Z,22.48
2019-06-26T03:25:38.034Z,22.48
2019-06-26T03:26:38.020Z,22.48
2019-06-26T03:27:37.994Z,22.46
2019-06-26T03:28:37.991Z,22.52
2019-06-26T03:29:37.989Z,22.59
2019-06-26T03:30:37.975Z,22.52
2019-06-26T03:31:37.987Z,22.56
2019-06-26T03:32:38.072Z,22.52
2019-06-26T03:33:37.939Z,22.56
2019-06-26T03:34:37.916Z,22.52
2019-06-26T03:35:40.705Z,22.58
2019-06-26T03:36:37.922Z,22.55
2019-06-26T03:37:37.882Z,22.67
2019-06-26T03:38:37.916Z,22.64
2019-06-26T03:39:37.862Z,22.61
2019-06-26T03:40:37.854Z,22.73
2019-06-26T03:41:37.858Z,22.67
2019-06-26T03:42:37.828Z,22.77
2019-06-26T03:43:37.824Z,22.77
2019-06-26T03:44:37.857Z,22.80
2019-06-26T03:45:37.796Z,22.77
2019-06-26T03:46:37.808Z,22.86
2019-06-26T03:47:37.783Z,22.76
2019-06-26T03:48:37.762Z,22.89
2019-06-26T03:49:37.757Z,22.83
2019-06-26T03:50:37.743Z,22.92
2019-06-26T03:51:37.744Z,22.95
2019-06-26T03:52:37.728Z,22.96
2019-06-26T03:53:37.706Z,23.03
2019-06-26T03:54:37.706Z,23.08
2019-06-26T03:55:37.691Z,23.04
2019-06-26T03:56:37.700Z,23.21
2019-06-26T03:57:37.672Z,23.15
2019-06-26T03:58:37.657Z,23.15
2019-06-26T03:59:37.641Z,23.17
2019-06-26T04:00:37.633Z,23.25
2019-06-26T04:01:37.644Z,23.25
2019-06-26T04:02:37.615Z,23.22
2019-06-26T04:03:37.604Z,23.23
2019-06-26T04:04:37.591Z,23.31
2019-06-26T04:05:37.583Z,23.26
2019-06-26T04:06:37.580Z,23.34
2019-06-26T04:07:37.561Z,23.34
2019-06-26T04:08:37.543Z,23.36
2019-06-26T04:09:37.535Z,23.45
2019-06-26T04:10:37.531Z,23.56
2019-06-26T04:11:37.520Z,23.51
2019-06-26T04:12:37.497Z,23.55
2019-06-26T04:13:37.497Z,23.63
2019-06-26T04:14:37.490Z,23.61
2019-06-26T04:15:42.588Z,23.61
2019-06-26T04:16:38.469Z,23.61
2019-06-26T04:17:37.445Z,23.63
2019-06-26T04:18:37.434Z,23.76
2019-06-26T04:19:37.424Z,23.73
2019-06-26T04:20:37.415Z,23.73
2019-06-26T04:21:37.416Z,23.73
2019-06-26T04:22:37.404Z,23.76
2019-06-26T04:23:37.391Z,23.82
2019-06-26T04:24:37.377Z,23.97
2019-06-26T04:25:38.428Z,23.97
2019-06-26T04:26:37.367Z,23.94
2019-06-26T04:27:37.338Z,23.97
2019-06-26T04:28:37.334Z,24.15
2019-06-26T04:29:37.319Z,24.16
2019-06-26T04:30:37.332Z,24.22
2019-06-26T04:31:37.376Z,24.21
2019-06-26T04:32:37.285Z,24.31
2019-06-26T04:33:37.286Z,24.26
2019-06-26T04:34:37.265Z,24.37
2019-06-26T04:35:37.263Z,24.45
2019-06-26T04:36:37.257Z,24.56
2019-06-26T04:37:37.235Z,24.52
2019-06-26T04:38:37.219Z,24.55
2019-06-26T04:39:37.214Z,24.52
2019-06-26T04:40:37.202Z,24.66
2019-06-26T04:41:37.205Z,24.74
2019-06-26T04:42:37.183Z,24.74
2019-06-26T04:43:37.171Z,24.79
2019-06-26T04:44:37.160Z,24.78
2019-06-26T04:45:37.156Z,24.89
2019-06-26T04:46:37.149Z,24.91
2019-06-26T04:47:37.133Z,25.00
2019-06-26T04:48:37.113Z,25.00
2019-06-26T04:49:37.105Z,25.04
2019-06-26T04:50:37.093Z,25.18
2019-06-26T04:51:37.103Z,25.27
2019-06-26T04:52:37.079Z,25.30
2019-06-26T04:53:37.097Z,25.28
2019-06-26T04:54:37.058Z,25.34
2019-06-26T04:55:37.044Z,25.38
2019-06-26T04:56:37.044Z,25.46
2019-06-26T04:57:37.026Z,25.53
2019-06-26T04:58:37.011Z,25.59
2019-06-26T04:59:37.003Z,25.66
2019-06-26T05:00:36.987Z,25.66
2019-06-26T05:01:36.991Z,25.81
2019-06-26T05:02:36.967Z,25.82
2019-06-26T05:03:36.958Z,25.78
2019-06-26T05:04:36.960Z,25.88
2019-06-26T05:05:39.948Z,26.00
2019-06-26T05:06:36.943Z,25.96
2019-06-26T05:07:36.918Z,26.10
2019-06-26T05:08:36.904Z,26.10
2019-06-26T05:09:36.893Z,26.20
2019-06-26T05:10:36.906Z,26.23
2019-06-26T05:11:36.894Z,26.31
2019-06-26T05:12:36.863Z,26.31
2019-06-26T05:13:36.854Z,26.41
2019-06-26T05:14:36.843Z,26.49
2019-06-26T05:15:36.831Z,26.51
2019-06-26T05:16:36.832Z,26.53
2019-06-26T05:17:36.809Z,26.64
2019-06-26T05:18:36.818Z,26.65
2019-06-26T05:19:36.789Z,26.73
2019-06-26T05:20:36.812Z,26.76
2019-06-26T05:21:36.783Z,26.82
2019-06-26T05:22:36.770Z,26.85
2019-06-26T05:23:36.779Z,26.86
2019-06-26T05:24:36.739Z,26.98
2019-06-26T05:25:36.731Z,26.93
2019-06-26T05:26:36.735Z,26.95
2019-06-26T05:27:36.715Z,27.01
2019-06-26T05:28:36.698Z,27.01
2019-06-26T05:29:36.726Z,27.08
2019-06-26T05:30:36.675Z,27.17
2019-06-26T05:31:36.684Z,27.22
2019-06-26T05:32:36.664Z,27.31
2019-06-26T05:33:36.645Z,27.31
2019-06-26T05:34:36.637Z,27.45
2019-06-26T05:35:36.622Z,27.45
2019-06-26T05:36:36.631Z,27.53
2019-06-26T05:37:36.602Z,27.58
2019-06-26T05:38:36.588Z,27.64
2019-06-26T05:39:36.579Z,27.72
2019-06-26T05:40:36.571Z,27.70
2019-06-26T05:41:36.577Z,27.72
2019-06-26T05:42:36.550Z,27.79
2019-06-26T05:43:36.537Z,27.88
2019-06-26T05:44:36.525Z,27.90
2019-06-26T05:45:36.519Z,27.97
2019-06-26T05:46:36.519Z,28.05
2019-06-26T05:47:36.498Z,28.06
2019-06-26T05:48:36.481Z,28.24
2019-06-26T05:49:36.471Z,28.13
2019-06-26T05:50:36.460Z,28.15
2019-06-26T05:51:36.471Z,28.22
2019-06-26T05:52:36.448Z,28.24
2019-06-26T05:53:36.433Z,28.32
2019-06-26T05:54:36.425Z,28.27
2019-06-26T05:55:36.408Z,28.34
2019-06-26T05:56:36.412Z,28.37
2019-06-26T05:57:36.388Z,28.46
2019-06-26T05:58:36.374Z,28.47
2019-06-26T05:59:36.365Z,28.56
2019-06-26T06:00:36.354Z,28.57
2019-06-26T06:01:36.362Z,28.64
2019-06-26T06:02:36.340Z,28.66
2019-06-26T06:03:36.324Z,28.65
2019-06-26T06:04:36.312Z,28.79
2019-06-26T06:05:36.305Z,28.75
2019-06-26T06:06:41.797Z,28.80
2019-06-26T06:07:37.285Z,28.84
2019-06-26T06:08:36.279Z,28.93
2019-06-26T06:09:36.273Z,28.94
2019-06-26T06:10:36.255Z,28.93
2019-06-26T06:11:36.252Z,28.96
2019-06-26T06:12:36.228Z,29.03
2019-06-26T06:13:36.249Z,29.03
2019-06-26T06:14:36.209Z,29.12
2019-06-26T06:15:36.206Z,29.13
2019-06-26T06:16:46.928Z,29.19
2019-06-26T06:17:37.180Z,29.27
2019-06-26T06:18:36.171Z,29.22
2019-06-26T06:19:36.167Z,29.29
2019-06-26T06:20:36.148Z,29.29
2019-06-26T06:21:36.151Z,29.40
2019-06-26T06:22:36.126Z,29.44
2019-06-26T06:23:36.118Z,29.40
2019-06-26T06:24:36.105Z,29.43
2019-06-26T06:25:36.094Z,29.46
2019-06-26T06:26:36.106Z,29.52
2019-06-26T06:27:36.072Z,29.58
2019-06-26T06:28:36.064Z,29.58
2019-06-26T06:29:36.058Z,29.62
2019-06-26T06:30:36.042Z,29.56
2019-06-26T06:31:36.048Z,29.61
2019-06-26T06:32:36.032Z,29.68
2019-06-26T06:33:36.013Z,29.68
2019-06-26T06:34:36.002Z,29.63
2019-06-26T06:35:35.996Z,29.74
2019-06-26T06:36:36.010Z,29.84
2019-06-26T06:37:35.972Z,29.86
2019-06-26T06:38:35.969Z,29.91
2019-06-26T06:39:35.950Z,29.84
2019-06-26T06:40:35.942Z,29.92
2019-06-26T06:41:35.948Z,29.98
2019-06-26T06:42:35.918Z,29.98
2019-06-26T06:43:35.935Z,30.05
2019-06-26T06:44:35.897Z,30.10
2019-06-26T06:45:35.890Z,30.11
2019-06-26T06:46:35.892Z,30.13
2019-06-26T06:47:35.869Z,30.14
2019-06-26T06:48:35.865Z,30.15
2019-06-26T06:49:35.852Z,30.20
2019-06-26T06:50:35.834Z,30.11
2019-06-26T06:51:35.842Z,30.10
2019-06-26T06:52:35.818Z,30.30
2019-06-26T06:53:35.806Z,30.30
2019-06-26T06:54:35.793Z,30.15
2019-06-26T06:55:35.782Z,30.29
2019-06-26T06:56:35.784Z,30.30
2019-06-26T06:57:35.767Z,30.32
2019-06-26T06:58:35.752Z,30.30
2019-06-26T06:59:35.748Z,30.26
2019-06-26T07:00:35.733Z,30.37
2019-06-26T07:01:35.733Z,30.36
2019-06-26T07:02:35.716Z,30.37
2019-06-26T07:03:35.703Z,30.40
2019-06-26T07:04:35.694Z,30.56
2019-06-26T07:05:35.675Z,30.52
2019-06-26T07:06:35.692Z,30.53
2019-06-26T07:07:35.655Z,30.55
2019-06-26T07:08:35.648Z,30.58
2019-06-26T07:09:35.637Z,30.53
2019-06-26T07:10:35.672Z,30.51
2019-06-26T07:11:35.627Z,30.59
2019-06-26T07:12:35.614Z,30.60
2019-06-26T07:13:35.600Z,30.62
2019-06-26T07:14:35.588Z,30.73
2019-06-26T07:15:35.586Z,30.74
2019-06-26T07:16:35.601Z,30.77
2019-06-26T07:17:35.554Z,30.77
2019-06-26T07:18:35.587Z,30.80
2019-06-26T07:19:35.537Z,30.75
2019-06-26T07:20:35.522Z,30.77
2019-06-26T07:21:35.513Z,30.83
2019-06-26T07:22:35.515Z,30.82
2019-06-26T07:23:35.495Z,30.85
2019-06-26T07:24:35.519Z,30.92
2019-06-26T07:25:35.483Z,30.90
2019-06-26T07:26:35.459Z,30.97
2019-06-26T07:27:35.463Z,30.99
2019-06-26T07:28:35.440Z,30.96
2019-06-26T07:29:35.435Z,31.02
2019-06-26T07:30:35.433Z,30.96
2019-06-26T07:31:38.423Z,30.99
2019-06-26T07:32:35.398Z,30.90
2019-06-26T07:33:35.387Z,31.07
2019-06-26T07:34:35.386Z,31.08
2019-06-26T07:35:35.389Z,31.07
2019-06-26T07:36:35.412Z,31.11
2019-06-26T07:37:35.353Z,31.10
2019-06-26T07:38:35.338Z,31.10
2019-06-26T07:39:35.328Z,31.17
2019-06-26T07:40:35.358Z,31.29
2019-06-26T07:41:35.305Z,31.20
2019-06-26T07:42:35.293Z,31.23
2019-06-26T07:43:35.289Z,31.27
2019-06-26T07:44:35.280Z,31.30
2019-06-26T07:45:35.284Z,31.29
2019-06-26T07:46:35.261Z,31.29
2019-06-26T07:47:43.343Z,31.34
2019-06-26T07:48:36.231Z,31.39
2019-06-26T07:49:35.226Z,31.42
2019-06-26T07:50:35.230Z,31.37
2019-06-26T07:51:35.204Z,31.38
2019-06-26T07:52:35.190Z,31.45
2019-06-26T07:53:35.186Z,31.42
2019-06-26T07:54:35.171Z,31.38
2019-06-26T07:55:35.183Z,31.46
2019-06-26T07:56:35.150Z,31.45
2019-06-26T07:57:35.143Z,31.59
2019-06-26T07:58:35.134Z,31.51
2019-06-26T07:59:35.145Z,31.54
2019-06-26T08:00:35.119Z,31.54
2019-06-26T08:01:35.132Z,31.61
2019-06-26T08:02:35.097Z,31.57
2019-06-26T08:03:35.085Z,31.59
2019-06-26T08:04:35.069Z,31.63
2019-06-26T08:05:35.074Z,31.64
2019-06-26T08:06:35.048Z,31.68
2019-06-26T08:07:35.042Z,31.68
2019-06-26T08:08:35.031Z,31.66
2019-06-26T08:09:35.018Z,31.64
2019-06-26T08:10:35.027Z,31.67
2019-06-26T08:11:34.993Z,31.68
2019-06-26T08:12:35.001Z,31.71
2019-06-26T08:13:34.974Z,31.68
2019-06-26T08:14:34.964Z,31.74
2019-06-26T08:15:34.968Z,31.70
2019-06-26T08:16:34.943Z,31.71
2019-06-26T08:17:34.937Z,31.78
2019-06-26T08:18:34.923Z,31.68
2019-06-26T08:19:34.915Z,31.78
2019-06-26T08:20:50.183Z,31.78
2019-06-26T08:21:35.890Z,31.81
2019-06-26T08:22:34.883Z,31.87
2019-06-26T08:23:34.873Z,31.78
2019-06-26T08:24:34.865Z,31.91
2019-06-26T08:25:34.862Z,31.87
2019-06-26T08:26:34.839Z,31.91
2019-06-26T08:27:34.835Z,31.90
2019-06-26T08:28:34.824Z,31.94
2019-06-26T08:29:34.809Z,31.95
2019-06-26T08:30:34.827Z,31.94
2019-06-26T08:31:34.793Z,31.98
2019-06-26T08:32:34.782Z,32.01
2019-06-26T08:33:34.772Z,32.02
2019-06-26T08:34:34.768Z,32.06
2019-06-26T08:35:34.754Z,32.06
2019-06-26T08:36:34.755Z,32.04
2019-06-26T08:37:34.735Z,32.13
2019-06-26T08:38:34.721Z,32.09
2019-06-26T08:39:34.718Z,32.23
2019-06-26T08:40:34.699Z,32.26
2019-06-26T08:41:34.702Z,32.16
2019-06-26T08:42:34.683Z,32.20
2019-06-26T08:43:34.666Z,32.33
2019-06-26T08:44:34.659Z,32.21
2019-06-26T08:45:34.643Z,32.26
2019-06-26T08:46:34.652Z,32.31
2019-06-26T08:47:34.651Z,32.35
2019-06-26T08:48:40.005Z,32.36
2019-06-26T08:49:35.605Z,32.35
2019-06-26T08:50:34.593Z,32.38
2019-06-26T08:51:34.608Z,32.42
2019-06-26T08:52:34.573Z,32.28
2019-06-26T08:53:34.566Z,32.36
2019-06-26T08:54:34.556Z,32.35
2019-06-26T08:55:34.544Z,32.35
2019-06-26T08:56:34.561Z,32.39
2019-06-26T08:57:34.538Z,32.45
2019-06-26T08:58:34.514Z,32.45
2019-06-26T08:59:34.522Z,32.48
2019-06-26T09:00:34.508Z,32.42
2019-06-26T09:01:34.489Z,32.43
2019-06-26T09:02:34.499Z,32.41
2019-06-26T09:03:34.463Z,32.41
2019-06-26T09:04:34.467Z,32.45
2019-06-26T09:05:47.641Z,32.46
2019-06-26T09:06:35.432Z,32.53
2019-06-26T09:07:34.440Z,32.46
2019-06-26T09:08:34.411Z,32.51
2019-06-26T09:09:34.420Z,32.55
2019-06-26T09:10:34.403Z,32.60
2019-06-26T09:11:34.385Z,32.65
2019-06-26T09:12:34.399Z,32.63
2019-06-26T09:13:34.359Z,32.60
2019-06-26T09:14:34.352Z,32.72
2019-06-26T09:15:34.345Z,32.60
2019-06-26T09:16:34.340Z,32.63
2019-06-26T09:17:34.342Z,32.72
2019-06-26T09:18:36.125Z,32.65
2019-06-26T09:19:34.303Z,32.79
2019-06-26T09:20:34.297Z,32.77
2019-06-26T09:21:34.288Z,32.80
2019-06-26T09:22:34.306Z,32.75
2019-06-26T09:23:34.268Z,32.80
2019-06-26T09:24:34.265Z,32.87
2019-06-26T09:25:34.249Z,32.83
2019-06-26T09:26:34.245Z,32.90
2019-06-26T09:27:34.227Z,32.88
2019-06-26T09:28:34.243Z,32.90
2019-06-26T09:29:34.203Z,32.97
2019-06-26T09:30:34.195Z,33.03
2019-06-26T09:31:34.194Z,32.99
2019-06-26T09:32:34.171Z,32.98
2019-06-26T09:33:34.196Z,32.98
2019-06-26T09:34:34.153Z,32.98
2019-06-26T09:35:34.147Z,32.97
2019-06-26T09:36:34.132Z,32.90
2019-06-26T09:37:34.125Z,33.01
2019-06-26T09:38:34.123Z,32.98
2019-06-26T09:39:34.117Z,33.06
2019-06-26T09:40:34.112Z,32.97
2019-06-26T09:41:34.087Z,33.01
2019-06-26T09:42:34.071Z,33.03
2019-06-26T09:43:34.104Z,33.01
2019-06-26T09:44:34.053Z,33.13
2019-06-26T09:45:34.049Z,33.10
2019-06-26T09:46:34.047Z,33.10
2019-06-26T09:47:34.025Z,33.13
2019-06-26T09:48:34.012Z,33.13
2019-06-26T09:49:34.021Z,33.09
2019-06-26T09:50:34.009Z,33.16
2019-06-26T09:51:33.981Z,33.10
2019-06-26T09:52:33.973Z,33.12
2019-06-26T09:53:46.500Z,33.20
2019-06-26T09:54:34.965Z,33.03
2019-06-26T09:55:33.937Z,33.09
2019-06-26T09:56:33.933Z,33.17
2019-06-26T09:57:33.918Z,33.07
2019-06-26T09:58:33.916Z,33.14
2019-06-26T09:59:33.926Z,33.13
2019-06-26T10:00:33.899Z,33.30
2019-06-26T10:01:33.875Z,33.22
2019-06-26T10:02:33.869Z,33.30
2019-06-26T10:03:33.864Z,33.22
2019-06-26T10:04:33.863Z,33.33
2019-06-26T10:05:33.844Z,33.37
2019-06-26T10:06:33.833Z,33.36
2019-06-26T10:07:33.817Z,33.33
2019-06-26T10:08:33.810Z,33.39
2019-06-26T10:09:33.834Z,33.37
2019-06-26T10:10:33.786Z,33.45
2019-06-26T10:11:33.774Z,33.48
2019-06-26T10:12:33.770Z,33.48
2019-06-26T10:13:33.822Z,33.51
2019-06-26T10:14:46.476Z,33.47
2019-06-26T10:15:34.762Z,33.58
2019-06-26T10:16:33.724Z,33.62
2019-06-26T10:17:33.712Z,33.62
2019-06-26T10:18:33.711Z,33.63
2019-06-26T10:19:33.694Z,33.67
2019-06-26T10:20:33.715Z,33.69
2019-06-26T10:21:33.794Z,33.67
2019-06-26T10:22:33.664Z,33.66
2019-06-26T10:23:33.652Z,33.81
2019-06-26T10:24:33.727Z,33.78
2019-06-26T10:25:33.818Z,33.84
2019-06-26T10:26:33.622Z,33.89
2019-06-26T10:27:33.626Z,33.85
2019-06-26T10:28:33.650Z,33.91
2019-06-26T10:29:33.619Z,33.95
2019-06-26T10:30:33.601Z,33.97
2019-06-26T10:31:33.573Z,33.93
2019-06-26T10:32:33.573Z,33.97
2019-06-26T10:33:33.555Z,34.04
2019-06-26T10:34:33.541Z,34.08
2019-06-26T10:35:33.551Z,34.15
2019-06-26T10:36:33.522Z,34.22
2019-06-26T10:37:33.516Z,34.19
2019-06-26T10:38:33.504Z,34.23
2019-06-26T10:39:33.493Z,34.30
2019-06-26T10:40:33.504Z,34.38
2019-06-26T10:41:33.479Z,34.26
2019-06-26T10:42:33.471Z,34.30
2019-06-26T10:43:33.460Z,34.35
2019-06-26T10:44:33.444Z,34.48
2019-06-26T10:45:36.065Z,34.55
2019-06-26T10:46:33.426Z,34.56
2019-06-26T10:47:33.414Z,34.72
2019-06-26T10:48:33.405Z,34.75
2019-06-26T10:49:33.384Z,34.83
2019-06-26T10:50:33.416Z,34.87
2019-06-26T10:51:33.374Z,34.90
2019-06-26T10:52:33.357Z,34.94
2019-06-26T10:53:33.398Z,35.01
2019-06-26T10:54:33.340Z,35.19
2019-06-26T10:55:33.364Z,35.21
2019-06-26T10:56:33.319Z,35.19
2019-06-26T10:57:33.319Z,35.23
2019-06-26T10:58:33.296Z,35.32
2019-06-26T10:59:33.298Z,35.42
2019-06-26T11:00:33.317Z,35.42
2019-06-26T11:01:33.267Z,35.44
2019-06-26T11:02:33.258Z,35.56
2019-06-26T11:03:33.239Z,35.57
2019-06-26T11:04:33.228Z,35.69
2019-06-26T11:05:33.251Z,35.81
2019-06-26T11:06:36.883Z,35.87
2019-06-26T11:07:36.309Z,35.97
2019-06-26T11:08:33.191Z,36.13
2019-06-26T11:09:33.218Z,36.13
2019-06-26T11:10:33.219Z,36.25
2019-06-26T11:11:33.160Z,36.35
2019-06-26T11:12:33.155Z,36.56
2019-06-26T11:13:33.139Z,36.61
2019-06-26T11:14:33.141Z,36.93
2019-06-26T11:15:33.284Z,36.93
2019-06-26T11:16:33.140Z,37.12
2019-06-26T11:17:33.104Z,37.25
2019-06-26T11:18:33.094Z,37.23
2019-06-26T11:19:43.258Z,37.38
2019-06-26T11:20:34.096Z,37.38
2019-06-26T11:21:33.067Z,37.30
2019-06-26T11:22:33.051Z,37.32
2019-06-26T11:23:33.053Z,37.32
2019-06-26T11:24:33.036Z,37.32
2019-06-26T11:25:33.056Z,37.42
2019-06-26T11:26:33.019Z,37.51
2019-06-26T11:27:33.017Z,37.51
2019-06-26T11:28:32.988Z,37.50
2019-06-26T11:29:32.981Z,37.45
2019-06-26T11:30:32.986Z,37.45
2019-06-26T11:31:32.962Z,37.54
2019-06-26T11:32:32.962Z,37.54
2019-06-26T11:33:32.957Z,37.57
2019-06-26T11:34:32.932Z,37.50
2019-06-26T11:35:32.954Z,37.49
2019-06-26T11:36:32.910Z,37.42
2019-06-26T11:37:32.898Z,37.49
2019-06-26T11:38:32.894Z,37.50
2019-06-26T11:39:32.882Z,37.49
2019-06-26T11:40:33.782Z,37.50
2019-06-26T11:41:32.862Z,37.58
2019-06-26T11:42:32.961Z,37.65
2019-06-26T11:43:32.838Z,37.79
2019-06-26T11:44:32.842Z,37.92
2019-06-26T11:45:32.839Z,37.89
2019-06-26T11:46:32.816Z,37.94
2019-06-26T11:47:32.816Z,38.02
2019-06-26T11:48:32.784Z,38.02
2019-06-26T11:49:32.782Z,38.17
2019-06-26T11:50:32.793Z,38.29
2019-06-26T11:51:32.760Z,38.39
2019-06-26T11:52:32.753Z,38.39
2019-06-26T11:53:32.741Z,38.52
2019-06-26T11:54:32.740Z,38.55
2019-06-26T11:55:32.741Z,38.69
2019-06-26T11:56:32.715Z,38.78
2019-06-26T11:57:32.698Z,38.86
2019-06-26T11:58:32.692Z,38.92
2019-06-26T11:59:32.684Z,39.04
2019-06-26T12:00:32.730Z,39.26
2019-06-26T12:01:32.665Z,39.31
2019-06-26T12:02:32.654Z,39.14
2019-06-26T12:03:32.645Z,39.20
2019-06-26T12:04:32.634Z,39.08
2019-06-26T12:05:32.650Z,39.17
2019-06-26T12:06:32.742Z,39.24
2019-06-26T12:07:32.604Z,39.35
2019-06-26T12:08:32.604Z,39.46
2019-06-26T12:09:32.583Z,39.57
2019-06-26T12:10:32.576Z,39.61
2019-06-26T12:11:32.606Z,39.67
2019-06-26T12:12:32.563Z,39.77
2019-06-26T12:13:33.598Z,39.83
2019-06-26T12:14:32.545Z,39.94
2019-06-26T12:15:32.534Z,40.07
2019-06-26T12:16:32.539Z,40.26
2019-06-26T12:17:32.525Z,40.38
2019-06-26T12:18:32.494Z,40.48
2019-06-26T12:19:32.485Z,40.58
2019-06-26T12:20:32.487Z,40.58
2019-06-26T12:21:32.481Z,40.74
2019-06-26T12:22:32.468Z,40.75
2019-06-26T12:23:32.453Z,40.64
2019-06-26T12:24:32.438Z,40.60
2019-06-26T12:25:32.440Z,40.63
2019-06-26T12:26:32.464Z,40.40
2019-06-26T12:27:32.418Z,40.36
2019-06-26T12:28:32.399Z,40.25
2019-06-26T12:29:33.088Z,40.08
2019-06-26T12:30:32.383Z,39.94
2019-06-26T12:31:32.377Z,39.76
2019-06-26T12:32:41.439Z,39.70
2019-06-26T12:33:33.371Z,39.61
2019-06-26T12:34:32.344Z,39.80
2019-06-26T12:35:32.332Z,39.86
2019-06-26T12:36:32.348Z,39.99
2019-06-26T12:37:37.640Z,40.08
2019-06-26T12:38:33.301Z,40.32
2019-06-26T12:39:32.294Z,40.35
2019-06-26T12:40:32.300Z,40.40
2019-06-26T12:41:32.272Z,40.33
2019-06-26T12:42:32.280Z,40.43
2019-06-26T12:43:32.262Z,40.58
2019-06-26T12:44:32.247Z,40.94
2019-06-26T12:45:32.237Z,41.42
2019-06-26T12:46:32.230Z,41.74
2019-06-26T12:47:32.250Z,42.07
2019-06-26T12:48:32.206Z,42.49
2019-06-26T12:49:32.210Z,42.86
2019-06-26T12:50:35.814Z,43.12
2019-06-26T12:51:32.174Z,43.52
2019-06-26T12:52:32.185Z,43.85